Cashmere, WA (98815)

5:15 PM PST on December 20, 2014 (GMT -0800)
East Cashmere | Change Station
CLOSE
Current Station
Personal Weather Station
Location: CASHMERE, WA
Elevation: 922 ft
Nearby Weather Stations

Elev 922 ft 47.52 °N, 120.44 °W | Updated 5 seconds ago

Overcast
Overcast
33.1 °F
Feels Like 33 °F
N
0.2
Wind Variable Wind from ENE
Gusts 0.4 mph

Today
High -- | Low -- °F
--% Chance of Precip.
Yesterday
High -- | Low -- °F
Precip. -- in
7:46 AM 4:12 PM
Waning Crescent, 1% visible
Pressure 29.60 in
Visibility 1.2 miles
Clouds Mostly Cloudy 300 ft
Overcast 1500 ft
Windchill 33 °F
Dew Point 32 °F
Humidity 94%
Rainfall 0.27 in
Snow Depth Not available.
UV 0 out of 12
Pollen .50 out of 12
Air Quality Not available.
Flu Activity Not available.
SPECI KEAT 210108Z AUTO 30003KT 1 1/4SM -RA BR BKN003 OVC015 02/01 A2960 RMK AO2 P0001 T00170006

More Conditions Fewer Conditions

Pressure 29.60 in
Visibility 1.2 miles
Clouds Mostly Cloudy 300 ft
Overcast 1500 ft
Windchill 33 °F
Dew Point 32 °F
Humidity 94%
Rainfall 0.27 in
Snow Depth Not available.
UV 0 out of 12
Pollen .50 out of 12
Air Quality Not available.
Flu Activity Not available.
SPECI KEAT 210108Z AUTO 30003KT 1 1/4SM -RA BR BKN003 OVC015 02/01 A2960 RMK AO2 P0001 T00170006

More Conditions Fewer Conditions

10-Day Weather Forecast

Almanac

Astronomy

Dec. 20, 2014 Rise Set
Actual Time
Civil Twilight
Nautical Twilight
Astronomical Twilight
Moon
Length of Visible Light
Length of Day
Tomorrow will be .
, % of the Moon is Illuminated

Today's Extremes

State Highs State Lows

Community

WunderPhotos

Upload Photos

1,779,332 photos uploaded!

WunderBlogs® & News

Nearby

Air Quality

  Air Quality AQ Index Pollutant
Not available.

Snow Depth

Station Depth Elevation

Earthquake Activity

City Distance Mag. Time & Date
Minimum magnitude displayed is 2.5.

Coastal Water Temperatures

Place Temperature

Nearby Weather Stations